South Mashpee, Massachusetts
Current Conditions -  °F | °C
As of 2:35 AM on Thursday 23 Oct 2014 (Local Time) from KFMH Reporting Station
Thunderstorm Thunderstorm  
Wind Chill: 57°   Ceiling: 400
Heat Index: 57°   Visibility: 6mi
Dew Point: 57°   Wind: 16mph
Humidity: 100%   Direction: 30°NNE
Pressure: 29.61"   Gusts: 22mph
Location:  41.6167°N, 70.4906°W
Report Text: KFMH 230635Z AUTO 03014G19KT 6SM VCTS BR OVC004 14/14 A2961 RMK AO2 LTG DSNT ALQDS
Loading
Personal Weather Stations






























Interactive Weather Map
Tropical Storm Tracking
New forecast layout! Learn more

10-Day Weather Forecast

Advertisements
Track Severe Weather on mobile